Neder Vindinge, Denmark
Current Conditions -  °F | °C
As of 8:20 AM on Sunday 23 Nov 2014 (Local Time) from EKAV Reporting Station
Broken Clouds Broken Clouds  
Wind Chill:   Ceiling: 1400
Heat Index:   Visibility: 6mi
Dew Point:   Wind: 28mph
Humidity: 87%   Direction: 140°SE
Pressure: 30.21"   Gusts: NA
Location:  55.03°N, 11.88°E
Report Text: EKAV 230720Z AUTO 14024KT 110V170 9999NDV BKN014/// BKN037///08/06 Q1023
Loading
Personal Weather Stations






























Interactive Weather Map New forecast layout! Learn more

10-Day Weather Forecast

Advertisements
Track Severe Weather on mobile